Time;durP1;ratioP1;P1;durP2;ratioP2;P2;SDS_P1;SDS_P2;PMS_P1;PMS_P2;Temp;Humidity;BMP_temperature;BMP_pressure;BME280_temperature;BME280_humidity;BME280_pressure;Samples;Min_cycle;Max_cycle;Signal;HPM_P1;HPM_P2
2023/10/12 00:00:27;;;;;;;;;;;;;;;;;;4994849;28;19925;-69
2023/10/12 00:02:57;;;;;;;;;;;;;;;;;;4994641;28;19926;-69
2023/10/12 00:05:27;;;;;;;;;;;;;;;;;;4994592;28;20012;-69
2023/10/12 00:07:55;;;;;;;;;;;;;;;;;;4994187;28;19932;-69
2023/10/12 00:10:22;;;;;;;;;;;;;;;;;;4994558;28;19926;-69
2023/10/12 00:12:50;;;;;;;;;;;;;;;;;;4993990;28;20020;-69
2023/10/12 00:15:23;;;;;;;;;;;;;;;;;;4994184;28;20386;-69
2023/10/12 00:17:50;;;;;;;;;;;;;;;;;;4994442;28;19933;-69
2023/10/12 00:20:21;;;;;;;;;;;;;;;;;;4994355;28;19925;-70
2023/10/12 00:22:48;;;;;;;;;;;;;;;;;;4994427;28;20012;-70
2023/10/12 00:25:16;;;;;;;;;;;;;;;;;;4994413;28;19933;-70
2023/10/12 00:27:43;;;;;;;;;;;;;;;;;;4994275;28;19932;-71
2023/10/12 00:30:10;;;;;;;;;;;;;;;;;;4994142;28;20499;-69
2023/10/12 00:32:37;;;;;;;;;;;;;;;;;;4994383;28;20012;-69
2023/10/12 00:35:04;;;;;;;;;;;;;;;;;;4994332;28;19926;-69
2023/10/12 00:37:32;;;;;;;;;;;;;;;;;;4994125;28;19926;-69
2023/10/12 00:40:20;;;;;;;;;;;;;;;;;;4994193;28;19938;-69
2023/10/12 00:42:51;;;;;;;;;;;;;;;;;;4994046;28;20414;-70
2023/10/12 00:45:29;;;;;;;;;;;;;;;;;;4994249;28;19925;-70
2023/10/12 00:48:01;;;;;;;;;;;;;;;;;;4994205;28;19984;-70
2023/10/12 00:50:29;;;;;;;;;;;;;;;;;;4994504;28;19925;-71
2023/10/12 00:52:57;;;;;;;;;;;;;;;;;;4994284;28;19980;-70
2023/10/12 00:55:34;;;;;;;;;;;;;;;;;;4994045;28;20012;-70
2023/10/12 00:58:04;;;;;;;;;;;;;;;;;;4994098;28;19980;-70
2023/10/12 01:00:35;;;;;;;;;;;;;;;;;;4994062;28;19956;-70
2023/10/12 01:03:27;;;;;;;;;;;;;;;;;;4994040;28;20379;-71
2023/10/12 01:06:12;;;;;;;;;;;;;;;;;;4994418;28;19929;-70
2023/10/12 01:08:42;;;;;;;;;;;;;;;;;;4994136;28;20350;-70
2023/10/12 01:11:09;;;;;;;;;;;;;;;;;;4995859;28;19930;-70
2023/10/12 01:13:36;;;;;;;;;;;;;;;;;;4995659;28;20294;-70
2023/10/12 01:16:11;;;;;;;;;;;;;;;;;;4995845;28;19933;-70
2023/10/12 01:18:38;;;;;;;;;;;;;;;;;;4994838;28;19926;-70
2023/10/12 01:21:11;;;;;;;;;;;;;;;;;;4993647;28;20306;-70
2023/10/12 01:23:41;;;;;;;;;;;;;;;;;;4994031;28;19981;-70
2023/10/12 01:26:11;;;;;;;;;;;;;;;;;;4996490;28;19926;-70
2023/10/12 01:28:39;;;;;;;;;;;;;;;;;;4997251;28;19977;-70
2023/10/12 01:31:06;;;;;;;;;;;;;;;;;;4997350;28;19925;-69
2023/10/12 01:33:32;;;;;;;;;;;;;;;;;;4997420;28;19949;-70
2023/10/12 01:35:59;;;;;;;;;;;;;;;;;;4997280;28;19926;-69
2023/10/12 01:38:36;;;;;;;;;;;;;;;;;;5028526;23;19925;-70
2023/10/12 01:41:09;;;;;;;;;;;;;;;;;;5018034;28;20367;-73
2023/10/12 01:43:36;;;;;;;;;;;;;;;;;;5019214;28;20433;-74
2023/10/12 01:46:08;;;;;;;;;;;;;;;;;;5017369;28;19928;-73
2023/10/12 01:48:34;;;;;;;;;;;;;;;;;;5017507;28;19926;-73
2023/10/12 01:51:03;;;;;;;;;;;;;;;;;;5016920;28;19925;-70
2023/10/12 01:53:32;;;;;;;;;;;;;;;;;;5016884;28;19925;-71
2023/10/12 01:55:59;;;;;;;;;;;;;;;;;;5016879;28;19976;-71
2023/10/12 01:58:28;;;;;;;;;;;;;;;;;;5016851;28;19926;-72
2023/10/12 02:00:55;;;;;;;;;;;;;;;;;;5016659;28;19933;-74
2023/10/12 02:03:26;;;;;;;;;;;;;;;;;;5016873;28;19933;-74
2023/10/12 02:05:58;;;;;;;;;;;;;;;;;;5016519;28;19933;-73
2023/10/12 02:08:32;;;;;;;;;;;;;;;;;;5016495;28;19929;-73
2023/10/12 02:11:06;;;;;;;;;;;;;;;;;;5016297;28;19965;-73
2023/10/12 02:13:34;;;;;;;;;;;;;;;;;;5016165;28;19925;-73
2023/10/12 02:16:01;;;;;;;;;;;;;;;;;;5016143;28;19926;-73
2023/10/12 02:18:30;;;;;;;;;;;;;;;;;;5015977;28;19926;-73
2023/10/12 02:21:07;;;;;;;;;;;;;;;;;;5016125;28;19925;-72
2023/10/12 02:23:38;;;;;;;;;;;;;;;;;;5015960;28;19957;-74
2023/10/12 02:26:28;;;;;;;;;;;;;;;;;;5016041;28;19925;-74
2023/10/12 02:28:55;;;;;;;;;;;;;;;;;;5015803;28;19932;-73
2023/10/12 02:31:22;;;;;;;;;;;;;;;;;;5015797;28;20290;-73
2023/10/12 02:33:49;;;;;;;;;;;;;;;;;;5015800;28;19925;-73
2023/10/12 02:36:18;;;;;;;;;;;;;;;;;;5015096;28;20466;-75
2023/10/12 02:38:45;;;;;;;;;;;;;;;;;;5015883;28;19984;-73
2023/10/12 02:41:13;;;;;;;;;;;;;;;;;;5015524;28;19933;-72
2023/10/12 02:43:43;;;;;;;;;;;;;;;;;;5015638;28;19929;-71
2023/10/12 02:46:22;;;;;;;;;;;;;;;;;;5015541;28;19925;-73
2023/10/12 02:48:50;;;;;;;;;;;;;;;;;;5015503;28;19933;-73
2023/10/12 02:51:17;;;;;;;;;;;;;;;;;;5015867;28;19931;-71
2023/10/12 02:53:47;;;;;;;;;;;;;;;;;;5015670;28;19935;-72
2023/10/12 02:56:14;;;;;;;;;;;;;;;;;;5015538;28;19976;-71
2023/10/12 02:58:45;;;;;;;;;;;;;;;;;;5015253;28;19972;-73
2023/10/12 03:01:18;;;;;;;;;;;;;;;;;;5015277;28;19930;-72
2023/10/12 03:03:48;;;;;;;;;;;;;;;;;;5014892;28;20469;-72
2023/10/12 03:06:21;;;;;;;;;;;;;;;;;;5014855;28;20378;-72
2023/10/12 03:09:02;;;;;;;;;;;;;;;;;;5015050;28;19931;-72
2023/10/12 03:11:29;;;;;;;;;;;;;;;;;;5014846;28;19975;-71
2023/10/12 03:13:59;;;;;;;;;;;;;;;;;;5015050;28;20406;-73
2023/10/12 03:16:32;;;;;;;;;;;;;;;;;;5014666;28;20014;-73
2023/10/12 03:19:00;;;;;;;;;;;;;;;;;;5014860;28;19926;-71
2023/10/12 03:21:33;;;;;;;;;;;;;;;;;;5015135;28;19933;-72
2023/10/12 03:24:02;;;;;;;;;;;;;;;;;;5014896;28;19968;-72
2023/10/12 03:26:32;;;;;;;;;;;;;;;;;;5014854;28;19968;-73
2023/10/12 03:29:08;;;;;;;;;;;;;;;;;;5014801;28;20275;-72
2023/10/12 03:31:37;;;;;;;;;;;;;;;;;;5014808;28;19925;-72
2023/10/12 03:34:16;;;;;;;;;;;;;;;;;;5015201;28;19926;-73
2023/10/12 03:36:47;;;;;;;;;;;;;;;;;;5014776;28;20309;-73
2023/10/12 03:39:27;;;;;;;;;;;;;;;;;;5014068;28;20394;-71
2023/10/12 03:42:10;;;;;;;;;;;;;;;;;;5014453;28;19933;-71
2023/10/12 03:44:48;;;;;;;;;;;;;;;;;;5014278;28;19928;-71
2023/10/12 03:47:17;;;;;;;;;;;;;;;;;;5014055;28;20279;-72
2023/10/12 03:49:58;;;;;;;;;;;;;;;;;;5014178;28;19925;-74
2023/10/12 03:52:27;;;;;;;;;;;;;;;;;;5015059;28;20390;-74
2023/10/12 03:55:09;;;;;;;;;;;;;;;;;;5015135;28;19937;-74
2023/10/12 03:57:41;;;;;;;;;;;;;;;;;;5016591;28;19969;-74
2023/10/12 04:02:56;;;;;;;;;;;;;;;;;;5019890;28;19944;-74
2023/10/12 04:05:35;;;;;;;;;;;;;;;;;;5015102;28;19926;-74
2023/10/12 04:08:18;;;;;;;;;;;;;;;;;;5015992;28;19933;-74
2023/10/12 04:16:27;;;;;;;;;;;;;;;;;;5013531;28;20291;-74
2023/10/12 04:19:03;;;;;;;;;;;;;;;;;;5014047;28;19931;-74
2023/10/12 04:21:33;;;;;;;;;;;;;;;;;;5014095;28;20019;-74
2023/10/12 04:26:44;;;;;;;;;;;;;;;;;;5013705;28;19921;-72
2023/10/12 04:29:13;;;;;;;;;;;;;;;;;;5014170;28;20314;-73
2023/10/12 04:31:49;;;;;;;;;;;;;;;;;;5013987;28;20025;-73
2023/10/12 04:34:16;;;;;;;;;;;;;;;;;;5013958;28;19979;-73
2023/10/12 04:36:45;;;;;;;;;;;;;;;;;;5013972;28;19921;-74
2023/10/12 04:39:15;;;;;;;;;;;;;;;;;;5013700;28;19987;-75
2023/10/12 04:41:54;;;;;;;;;;;;;;;;;;5014045;28;19926;-72
2023/10/12 04:44:40;;;;;;;;;;;;;;;;;;5013771;28;20327;-75
2023/10/12 04:47:06;;;;;;;;;;;;;;;;;;5014256;28;19925;-74
2023/10/12 04:52:24;;;;;;;;;;;;;;;;;;5014336;28;19960;-76
2023/10/12 04:54:59;;;;;;;;;;;;;;;;;;5013650;28;20390;-74
2023/10/12 04:57:27;;;;;;;;;;;;;;;;;;5013978;28;19928;-74
2023/10/12 05:00:07;;;;;;;;;;;;;;;;;;5015855;28;19929;-73
2023/10/12 05:02:43;;;;;;;;;;;;;;;;;;5017620;28;20023;-74
2023/10/12 05:05:54;;;;;;;;;;;;;;;;;;5017529;28;19925;-75
2023/10/12 05:08:02;;;;;;;;;;;;;;;;;;5017113;28;19983;-74
2023/10/12 05:10:31;;;;;;;;;;;;;;;;;;5017351;28;19921;-74
2023/10/12 05:13:03;;;;;;;;;;;;;;;;;;5017231;28;20433;-72
2023/10/12 05:15:39;;;;;;;;;;;;;;;;;;5016894;28;20333;-73
2023/10/12 05:18:06;;;;;;;;;;;;;;;;;;5017124;28;19992;-73
2023/10/12 05:20:33;;;;;;;;;;;;;;;;;;5016930;28;19926;-73
2023/10/12 05:23:02;;;;;;;;;;;;;;;;;;5017911;28;20251;-73
2023/10/12 10:42:31;;;;;;;;;;;;;;;;;;5544151;23;20384;-73
2023/10/12 10:44:58;;;;;;;;;;;;;;;;;;5042201;28;19936;-72
2023/10/12 10:47:27;;;;;;;;;;;;;;;;;;5035074;28;20386;-72
2023/10/12 10:49:54;;;;;;;;;;;;;;;;;;5035025;28;20370;-72
2023/10/12 10:52:21;;;;;;;;;;;;;;;;;;5035101;28;19964;-72
2023/10/12 10:54:56;;;;;;;;;;;;;;;;;;5035448;28;19991;-72
2023/10/12 10:57:31;;;;;;;;;;;;;;;;;;5035519;28;20263;-71
2023/10/12 10:59:57;;;;;;;;;;;;;;;;;;5035169;28;19940;-73
2023/10/12 11:02:24;;;;;;;;;;;;;;;;;;5035219;28;19932;-73
2023/10/12 11:04:54;;;;;;;;;;;;;;;;;;5035164;28;19925;-72
2023/10/12 11:07:21;;;;;;;;;;;;;;;;;;5035102;28;20020;-73
2023/10/12 11:10:05;;;;;;;;;;;;;;;;;;5034769;28;20319;-73
2023/10/12 11:12:32;;;;;;;;;;;;;;;;;;5035186;28;19932;-73
2023/10/12 11:15:00;;;;;;;;;;;;;;;;;;5034965;28;19979;-73
2023/10/12 11:17:30;;;;;;;;;;;;;;;;;;5034862;28;19925;-73
2023/10/12 11:19:57;;;;;;;;;;;;;;;;;;5034626;28;19983;-72
2023/10/12 11:22:24;;;;;;;;;;;;;;;;;;5034689;28;19947;-72
2023/10/12 11:24:53;;;;;;;;;;;;;;;;;;5034685;28;19976;-72
2023/10/12 11:27:20;;;;;;;;;;;;;;;;;;5034640;28;19933;-72
2023/10/12 11:29:48;;;;;;;;;;;;;;;;;;5034602;28;19925;-72
2023/10/12 11:32:16;;;;;;;;;;;;;;;;;;5034527;28;19925;-72
2023/10/12 11:34:44;;;;;;;;;;;;;;;;;;5034383;28;19933;-73
2023/10/12 11:37:12;;;;;;;;;;;;;;;;;;5034220;28;19929;-73
2023/10/12 11:39:39;;;;;;;;;;;;;;;;;;5034727;28;19928;-73
2023/10/12 11:42:06;;;;;;;;;;;;;;;;;;5034402;28;19932;-73
2023/10/12 11:44:33;;;;;;;;;;;;;;;;;;5033900;28;19925;-73
2023/10/12 11:47:02;;;;;;;;;;;;;;;;;;5034240;28;19925;-73
2023/10/12 11:49:32;;;;;;;;;;;;;;;;;;5034211;28;20000;-73
2023/10/12 11:52:13;;;;;;;;;;;;;;;;;;5034052;28;19925;-72
2023/10/12 11:54:40;;;;;;;;;;;;;;;;;;5034138;28;20401;-72
2023/10/12 11:57:08;;;;;;;;;;;;;;;;;;5034077;28;19925;-72
2023/10/12 11:59:35;;;;;;;;;;;;;;;;;;5033839;28;20409;-72
2023/10/12 12:02:08;;;;;;;;;;;;;;;;;;5033839;28;19955;-71
2023/10/12 12:04:39;;;;;;;;;;;;;;;;;;5033773;28;20406;-73
2023/10/12 12:07:10;;;;;;;;;;;;;;;;;;5034043;28;19932;-72
2023/10/12 12:09:39;;;;;;;;;;;;;;;;;;5033292;28;19979;-72
2023/10/12 12:12:07;;;;;;;;;;;;;;;;;;5033462;28;20275;-72
2023/10/12 12:14:35;;;;;;;;;;;;;;;;;;5034054;28;19925;-73
2023/10/12 12:17:04;;;;;;;;;;;;;;;;;;5033973;28;19933;-71
2023/10/12 12:19:33;;;;;;;;;;;;;;;;;;5033825;28;19925;-74
2023/10/12 12:22:00;;;;;;;;;;;;;;;;;;5033733;28;19952;-73
2023/10/12 12:24:29;;;;;;;;;;;;;;;;;;5033819;28;19925;-73
2023/10/12 12:26:56;;;;;;;;;;;;;;;;;;5033803;28;20369;-73
2023/10/12 12:29:26;;;;;;;;;;;;;;;;;;5033745;28;19932;-72
2023/10/12 12:31:52;;;;;;;;;;;;;;;;;;5034051;28;19979;-73
2023/10/12 12:34:38;;;;;;;;;;;;;;;;;;5040013;28;19936;-74
2023/10/12 14:00:41;;;;;;;;;;;;;;;;;;5061736;22;20028;-74
2023/10/12 14:03:17;;;;;;;;;;;;;;;;;;4997056;28;19926;-74
2023/10/12 14:05:44;;;;;;;;;;;;;;;;;;4996949;28;19938;-74
2023/10/12 14:08:12;;;;;;;;;;;;;;;;;;4996754;28;19933;-74
2023/10/12 14:10:39;;;;;;;;;;;;;;;;;;4996715;28;19926;-74
2023/10/12 14:13:06;;;;;;;;;;;;;;;;;;4997183;28;19933;-74
2023/10/12 14:15:35;;;;;;;;;;;;;;;;;;4997471;28;19930;-74
2023/10/12 14:18:02;;;;;;;;;;;;;;;;;;4996968;28;19933;-73
2023/10/12 14:20:29;;;;;;;;;;;;;;;;;;4996564;28;19925;-73
2023/10/12 14:22:57;;;;;;;;;;;;;;;;;;4996560;28;20371;-73
2023/10/12 14:28:05;;;;;;;;;;;;;;;;;;4998992;28;19929;-73
2023/10/12 14:30:32;;;;;;;;;;;;;;;;;;4998523;28;19925;-73
2023/10/12 14:33:02;;;;;;;;;;;;;;;;;;5000110;28;19925;-73
2023/10/12 14:35:29;;;;;;;;;;;;;;;;;;4996999;28;19957;-73
2023/10/12 14:37:56;;;;;;;;;;;;;;;;;;4995959;28;19926;-76
2023/10/12 14:40:29;;;;;;;;;;;;;;;;;;4996065;28;19933;-75
2023/10/12 14:42:55;;;;;;;;;;;;;;;;;;4996196;28;19974;-76
2023/10/12 14:45:24;;;;;;;;;;;;;;;;;;4996637;28;19926;-76
2023/10/12 14:47:51;;;;;;;;;;;;;;;;;;4996524;28;19956;-75
2023/10/12 14:50:18;;;;;;;;;;;;;;;;;;4996344;28;20387;-76
2023/10/12 14:52:45;;;;;;;;;;;;;;;;;;4996245;28;19933;-75
2023/10/12 14:55:12;;;;;;;;;;;;;;;;;;4996112;28;19925;-75
2023/10/12 14:57:39;;;;;;;;;;;;;;;;;;4996150;28;19926;-73
2023/10/12 15:00:09;;;;;;;;;;;;;;;;;;4995563;28;19926;-72
2023/10/12 15:02:36;;;;;;;;;;;;;;;;;;4995827;28;19930;-72
2023/10/12 15:05:05;;;;;;;;;;;;;;;;;;4996145;28;19933;-72
2023/10/12 15:07:35;;;;;;;;;;;;;;;;;;4995875;28;19930;-72
2023/10/12 15:10:05;;;;;;;;;;;;;;;;;;4995689;28;19948;-72
2023/10/12 15:12:32;;;;;;;;;;;;;;;;;;4995715;28;19925;-71
2023/10/12 15:15:00;;;;;;;;;;;;;;;;;;4995364;28;20426;-74
2023/10/12 15:17:27;;;;;;;;;;;;;;;;;;4995510;28;20310;-72
2023/10/12 15:19:54;;;;;;;;;;;;;;;;;;4995430;28;19926;-73
2023/10/12 15:22:21;;;;;;;;;;;;;;;;;;4995023;28;20301;-73
2023/10/12 15:24:50;;;;;;;;;;;;;;;;;;4995221;28;19925;-72
2023/10/12 15:27:17;;;;;;;;;;;;;;;;;;4995298;28;19930;-72
2023/10/12 15:29:44;;;;;;;;;;;;;;;;;;4995235;28;20421;-72
2023/10/12 15:32:11;;;;;;;;;;;;;;;;;;4995333;28;19934;-72
2023/10/12 15:34:38;;;;;;;;;;;;;;;;;;4994900;28;20315;-72
2023/10/12 15:37:05;;;;;;;;;;;;;;;;;;4994962;28;20402;-71
2023/10/12 15:39:32;;;;;;;;;;;;;;;;;;4994913;28;20280;-72
2023/10/12 15:41:59;;;;;;;;;;;;;;;;;;4995050;28;19976;-72
2023/10/12 15:44:26;;;;;;;;;;;;;;;;;;4994119;28;19937;-71
2023/10/12 15:46:54;;;;;;;;;;;;;;;;;;4994997;28;19926;-71
2023/10/12 15:49:21;;;;;;;;;;;;;;;;;;4995529;28;19926;-71
2023/10/12 15:51:48;;;;;;;;;;;;;;;;;;4994505;28;20314;-71
2023/10/12 15:54:16;;;;;;;;;;;;;;;;;;4994796;28;19925;-71
2023/10/12 15:56:43;;;;;;;;;;;;;;;;;;4994710;28;20013;-70
2023/10/12 15:59:10;;;;;;;;;;;;;;;;;;4994689;28;19933;-69
2023/10/12 16:01:37;;;;;;;;;;;;;;;;;;4994211;28;19926;-69
2023/10/12 16:04:08;;;;;;;;;;;;;;;;;;4994334;28;20409;-69
2023/10/12 16:06:36;;;;;;;;;;;;;;;;;;4994204;28;20434;-69
2023/10/12 16:09:09;;;;;;;;;;;;;;;;;;4994825;28;19925;-69
2023/10/12 16:11:38;;;;;;;;;;;;;;;;;;4994941;28;19968;-69
2023/10/12 16:14:05;;;;;;;;;;;;;;;;;;4994597;28;19926;-72
2023/10/12 16:16:32;;;;;;;;;;;;;;;;;;4994614;28;19926;-72
2023/10/12 16:18:59;;;;;;;;;;;;;;;;;;4994122;28;19925;-72
2023/10/12 16:21:27;;;;;;;;;;;;;;;;;;4994375;28;19930;-72
2023/10/12 16:23:54;;;;;;;;;;;;;;;;;;4994512;28;19925;-69
2023/10/12 16:26:22;;;;;;;;;;;;;;;;;;4994399;28;19925;-69
2023/10/12 16:28:51;;;;;;;;;;;;;;;;;;4994327;28;20380;-69
2023/10/12 16:31:18;;;;;;;;;;;;;;;;;;4994326;28;19973;-69
2023/10/12 16:33:45;;;;;;;;;;;;;;;;;;4994363;28;20287;-70
2023/10/12 16:36:12;;;;;;;;;;;;;;;;;;4994824;28;19926;-69
2023/10/12 16:38:38;;;;;;;;;;;;;;;;;;4994250;28;20391;-69
2023/10/12 16:41:07;;;;;;;;;;;;;;;;;;4994294;28;19926;-69
2023/10/12 16:43:34;;;;;;;;;;;;;;;;;;4994370;28;19925;-70
2023/10/12 16:46:01;;;;;;;;;;;;;;;;;;4994260;28;20350;-70
2023/10/12 16:48:28;;;;;;;;;;;;;;;;;;4994239;28;19930;-69
2023/10/12 16:50:55;;;;;;;;;;;;;;;;;;4994279;28;19926;-70
2023/10/12 16:53:22;;;;;;;;;;;;;;;;;;4994485;28;19932;-70
2023/10/12 16:55:49;;;;;;;;;;;;;;;;;;4996583;28;19926;-70
2023/10/12 16:58:17;;;;;;;;;;;;;;;;;;4998160;28;19933;-69
2023/10/12 17:00:44;;;;;;;;;;;;;;;;;;4997742;28;20024;-69
2023/10/12 17:03:11;;;;;;;;;;;;;;;;;;4997946;28;19948;-69
2023/10/12 17:05:38;;;;;;;;;;;;;;;;;;4998024;28;19938;-68
2023/10/12 17:08:06;;;;;;;;;;;;;;;;;;4997405;28;20311;-67
2023/10/12 17:10:33;;;;;;;;;;;;;;;;;;4997905;28;19926;-70
2023/10/12 17:13:00;;;;;;;;;;;;;;;;;;4997517;28;19926;-72
2023/10/12 17:15:27;;;;;;;;;;;;;;;;;;4998058;28;19984;-71
2023/10/12 17:17:54;;;;;;;;;;;;;;;;;;4998571;28;19926;-72
2023/10/12 17:20:23;;;;;;;;;;;;;;;;;;4998354;28;19976;-71
2023/10/12 17:22:51;;;;;;;;;;;;;;;;;;4998322;28;19925;-72
2023/10/12 17:25:18;;;;;;;;;;;;;;;;;;4997971;28;19984;-71
2023/10/12 17:27:45;;;;;;;;;;;;;;;;;;4998555;28;19926;-71
2023/10/12 17:30:12;;;;;;;;;;;;;;;;;;4998071;28;19925;-72
2023/10/12 17:32:41;;;;;;;;;;;;;;;;;;4998667;28;19925;-71
2023/10/12 17:35:12;;;;;;;;;;;;;;;;;;4998197;28;19960;-71
2023/10/12 17:37:39;;;;;;;;;;;;;;;;;;4998560;28;19932;-72
2023/10/12 17:40:06;;;;;;;;;;;;;;;;;;4999380;28;20354;-72
2023/10/12 17:42:33;;;;;;;;;;;;;;;;;;4998975;28;19926;-72
2023/10/12 17:45:09;;;;;;;;;;;;;;;;;;4999389;28;19933;-72
2023/10/12 17:47:36;;;;;;;;;;;;;;;;;;4999111;28;19925;-73
2023/10/12 17:50:12;;;;;;;;;;;;;;;;;;4998306;28;19926;-72
2023/10/12 17:52:39;;;;;;;;;;;;;;;;;;4997652;28;20260;-73
2023/10/12 17:55:06;;;;;;;;;;;;;;;;;;4997133;28;19925;-72
2023/10/12 17:57:33;;;;;;;;;;;;;;;;;;4996801;28;20383;-73
2023/10/12 18:00:01;;;;;;;;;;;;;;;;;;4996715;28;20599;-73
2023/10/12 18:02:28;;;;;;;;;;;;;;;;;;4997475;28;19929;-73
2023/10/12 18:04:55;;;;;;;;;;;;;;;;;;4997787;28;19926;-73
2023/10/12 18:07:22;;;;;;;;;;;;;;;;;;4996000;28;20028;-72
2023/10/12 18:09:50;;;;;;;;;;;;;;;;;;4996783;28;20314;-72
2023/10/12 18:12:16;;;;;;;;;;;;;;;;;;4996686;28;20334;-72
2023/10/12 18:14:43;;;;;;;;;;;;;;;;;;4997058;28;19936;-72
2023/10/12 18:17:11;;;;;;;;;;;;;;;;;;4996944;28;19933;-72
2023/10/12 18:19:38;;;;;;;;;;;;;;;;;;4997188;28;19930;-72
2023/10/12 18:22:05;;;;;;;;;;;;;;;;;;4997284;28;19926;-73
2023/10/12 18:24:32;;;;;;;;;;;;;;;;;;4996878;28;19933;-71
2023/10/12 18:26:59;;;;;;;;;;;;;;;;;;4997568;28;19932;-73
2023/10/12 18:29:26;;;;;;;;;;;;;;;;;;4996402;28;19933;-73
2023/10/12 18:31:53;;;;;;;;;;;;;;;;;;4997005;28;19941;-73
2023/10/12 18:34:20;;;;;;;;;;;;;;;;;;4996907;28;19952;-72
2023/10/12 18:36:48;;;;;;;;;;;;;;;;;;4996585;28;20326;-73
2023/10/12 18:39:17;;;;;;;;;;;;;;;;;;4996792;28;19929;-72
2023/10/12 18:41:44;;;;;;;;;;;;;;;;;;4996796;28;19953;-72
2023/10/12 18:44:13;;;;;;;;;;;;;;;;;;4996166;28;20387;-72
2023/10/12 18:46:43;;;;;;;;;;;;;;;;;;4996767;28;19926;-72
2023/10/12 18:49:11;;;;;;;;;;;;;;;;;;4996825;28;19949;-73
2023/10/12 18:51:38;;;;;;;;;;;;;;;;;;4997161;28;20037;-72
2023/10/12 18:54:08;;;;;;;;;;;;;;;;;;4996816;28;19933;-72
2023/10/12 18:56:34;;;;;;;;;;;;;;;;;;4996915;28;19932;-71
2023/10/12 18:59:07;;;;;;;;;;;;;;;;;;4996804;28;19925;-71
2023/10/12 19:01:34;;;;;;;;;;;;;;;;;;4996137;28;19926;-72
2023/10/12 19:04:01;;;;;;;;;;;;;;;;;;4996187;28;19933;-72
2023/10/12 19:06:28;;;;;;;;;;;;;;;;;;4995408;28;19933;-72
2023/10/12 19:08:55;;;;;;;;;;;;;;;;;;4996200;28;19948;-73
2023/10/12 19:11:22;;;;;;;;;;;;;;;;;;4995904;28;19933;-73
2023/10/12 19:13:50;;;;;;;;;;;;;;;;;;4995696;28;19926;-72
2023/10/12 19:16:18;;;;;;;;;;;;;;;;;;4995610;28;19926;-71
2023/10/12 19:18:45;;;;;;;;;;;;;;;;;;4995075;28;19925;-71
2023/10/12 19:21:12;;;;;;;;;;;;;;;;;;4995415;28;19933;-70
2023/10/12 19:23:39;;;;;;;;;;;;;;;;;;4995714;28;19953;-70
2023/10/12 19:26:06;;;;;;;;;;;;;;;;;;4995530;28;19933;-71
2023/10/12 19:28:34;;;;;;;;;;;;;;;;;;4995559;28;19926;-71
2023/10/12 19:31:06;;;;;;;;;;;;;;;;;;4995218;28;20461;-71
2023/10/12 19:33:33;;;;;;;;;;;;;;;;;;4995463;28;19925;-70
2023/10/12 19:36:01;;;;;;;;;;;;;;;;;;4995215;28;20379;-70
2023/10/12 19:38:28;;;;;;;;;;;;;;;;;;4995720;28;19930;-70
2023/10/12 19:40:55;;;;;;;;;;;;;;;;;;4995748;28;19926;-70
2023/10/12 19:43:22;;;;;;;;;;;;;;;;;;4995316;28;20271;-71
2023/10/12 19:45:49;;;;;;;;;;;;;;;;;;4994800;28;20343;-70
2023/10/12 19:48:16;;;;;;;;;;;;;;;;;;4994886;28;19926;-70
2023/10/12 19:50:43;;;;;;;;;;;;;;;;;;4994549;28;19933;-70
2023/10/12 19:53:11;;;;;;;;;;;;;;;;;;4994829;28;19926;-70
2023/10/12 19:55:38;;;;;;;;;;;;;;;;;;4994951;28;19976;-70
2023/10/12 19:58:08;;;;;;;;;;;;;;;;;;4994770;28;19926;-70
2023/10/12 20:00:39;;;;;;;;;;;;;;;;;;4994413;28;19925;-70
2023/10/12 20:03:21;;;;;;;;;;;;;;;;;;4994807;28;19925;-70
2023/10/12 20:05:49;;;;;;;;;;;;;;;;;;4994879;28;19930;-70
